createdAt,value
2023-04-20T00:03:34.749Z,96.80
2023-04-20T00:07:36.271Z,96.60
2023-04-20T00:11:37.428Z,98.00
2023-04-20T00:15:38.603Z,98.20
2023-04-20T00:19:39.747Z,98.60
2023-04-20T00:23:41.635Z,99.90
2023-04-20T00:27:43.974Z,99.90
2023-04-20T00:31:45.323Z,99.90
2023-04-20T00:35:46.486Z,99.90
2023-04-20T00:39:47.652Z,99.90
2023-04-20T00:43:53.106Z,99.90
2023-04-20T00:47:54.320Z,99.90
2023-04-20T00:51:57.682Z,99.90
2023-04-20T00:55:59.040Z,99.90
2023-04-20T01:00:00.793Z,99.90
2023-04-20T01:04:02.162Z,99.90
2023-04-20T01:08:05.177Z,99.90
2023-04-20T01:12:07.092Z,99.90
2023-04-20T01:16:08.309Z,99.90
2023-04-20T01:20:13.922Z,99.90
2023-04-20T01:24:15.092Z,99.90
2023-04-20T01:28:16.256Z,99.90
2023-04-20T01:32:17.428Z,99.90
2023-04-20T01:36:18.669Z,99.90
2023-04-20T01:40:19.827Z,99.90
2023-04-20T01:44:20.990Z,99.90
2023-04-20T01:48:22.154Z,99.90
2023-04-20T01:52:23.326Z,99.90
2023-04-20T01:56:24.796Z,99.90
2023-04-20T02:00:25.963Z,99.90
2023-04-20T02:04:27.148Z,99.90
2023-04-20T02:08:28.292Z,99.90
2023-04-20T02:12:29.770Z,99.90
2023-04-20T02:16:30.948Z,99.90
2023-04-20T02:20:32.146Z,99.90
2023-04-20T02:24:33.332Z,99.90
2023-04-20T02:28:34.470Z,99.90
2023-04-20T02:32:35.920Z,99.90
2023-04-20T02:36:37.193Z,99.90
2023-04-20T02:40:38.359Z,99.90
2023-04-20T02:44:39.457Z,99.90
2023-04-20T02:48:41.149Z,99.90
2023-04-20T02:52:42.294Z,99.90
2023-04-20T02:56:43.943Z,99.90
2023-04-20T03:00:45.196Z,99.90
2023-04-20T03:04:46.452Z,99.90
2023-04-20T03:08:47.804Z,99.90
2023-04-20T03:12:48.978Z,99.90
2023-04-20T03:16:50.873Z,99.90
2023-04-20T03:20:52.092Z,99.90
2023-04-20T03:24:53.706Z,99.90
2023-04-20T03:28:56.260Z,99.90
2023-04-20T03:32:57.489Z,99.90
2023-04-20T03:36:58.578Z,99.90
2023-04-20T03:40:59.828Z,99.90
2023-04-20T03:45:01.024Z,99.90
2023-04-20T03:49:02.668Z,99.90
2023-04-20T03:53:03.825Z,99.90
2023-04-20T03:57:05.390Z,99.90
2023-04-20T04:01:07.157Z,99.90
2023-04-20T04:05:08.650Z,99.90
2023-04-20T04:09:10.224Z,99.90
2023-04-20T04:13:11.531Z,99.90
2023-04-20T04:17:15.978Z,99.90
2023-04-20T04:21:17.290Z,99.90
2023-04-20T04:25:19.747Z,99.90
2023-04-20T04:29:21.540Z,99.90
2023-04-20T04:33:24.932Z,99.90
2023-04-20T04:37:26.638Z,99.90
2023-04-20T04:41:28.038Z,99.90
2023-04-20T04:45:29.491Z,99.90
2023-04-20T04:49:31.724Z,99.90
2023-04-20T04:53:32.881Z,99.90
2023-04-20T04:57:35.588Z,99.90
2023-04-20T05:01:36.786Z,99.90
2023-04-20T05:05:37.924Z,99.90
2023-04-20T05:09:39.496Z,99.90
2023-04-20T05:13:40.901Z,99.90
2023-04-20T05:17:42.213Z,99.90
2023-04-20T05:21:44.027Z,99.90
2023-04-20T05:25:46.033Z,99.90
2023-04-20T05:29:47.174Z,99.90
2023-04-20T05:33:48.354Z,99.90
2023-04-20T05:37:49.587Z,99.90
2023-04-20T05:41:50.814Z,99.90
2023-04-20T05:45:52.048Z,99.90
2023-04-20T05:49:53.452Z,99.90
2023-04-20T05:53:54.722Z,99.90
2023-04-20T05:57:55.916Z,99.90
2023-04-20T06:01:57.361Z,99.90
2023-04-20T06:05:58.745Z,99.90
2023-04-20T06:10:01.224Z,99.90
2023-04-20T06:14:02.569Z,99.90
2023-04-20T06:18:04.014Z,99.90
2023-04-20T06:22:09.373Z,99.90
2023-04-20T06:26:10.929Z,99.90
2023-04-20T06:30:12.930Z,99.90
2023-04-20T06:34:14.309Z,99.90
2023-04-20T06:38:15.455Z,99.90
2023-04-20T06:42:17.936Z,99.90
2023-04-20T06:46:19.219Z,99.90
2023-04-20T06:50:21.264Z,99.90
2023-04-20T06:54:23.265Z,99.90
2023-04-20T06:58:24.476Z,99.90
2023-04-20T07:02:26.060Z,99.90
2023-04-20T07:06:27.870Z,99.90
2023-04-20T07:10:29.022Z,99.90
2023-04-20T07:14:30.298Z,99.90
2023-04-20T07:18:32.906Z,99.90
2023-04-20T07:22:36.300Z,99.90
2023-04-20T07:26:37.618Z,99.90
2023-04-20T07:30:38.785Z,99.90
2023-04-20T07:34:39.953Z,99.90
2023-04-20T07:38:41.207Z,99.90
2023-04-20T07:42:42.389Z,99.90
2023-04-20T07:46:43.538Z,99.90
2023-04-20T07:50:45.829Z,99.90
2023-04-20T07:54:47.019Z,99.90
2023-04-20T07:58:48.133Z,99.90
2023-04-20T08:02:49.435Z,99.90
2023-04-20T08:06:50.775Z,99.90
2023-04-20T08:10:51.942Z,99.90
2023-04-20T08:14:53.126Z,99.90
2023-04-20T08:18:54.274Z,99.90
2023-04-20T08:22:55.441Z,99.90
2023-04-20T08:26:58.779Z,99.90
2023-04-20T08:31:00.025Z,99.90
2023-04-20T08:35:01.211Z,99.90
2023-04-20T08:39:08.921Z,99.90
2023-04-20T08:43:10.574Z,99.90
2023-04-20T08:47:12.440Z,99.90
2023-04-20T08:51:16.393Z,99.90
2023-04-20T08:55:18.294Z,99.90
2023-04-20T08:59:19.460Z,99.90
2023-04-20T09:03:39.475Z,99.90
2023-04-20T09:07:44.509Z,98.60
2023-04-20T09:11:46.190Z,90.50
2023-04-20T09:15:47.535Z,86.80
2023-04-20T09:19:53.896Z,72.50
2023-04-20T09:23:57.672Z,76.60
2023-04-20T09:28:00.597Z,91.00
2023-04-20T09:32:01.857Z,92.50
2023-04-20T09:36:05.244Z,96.00
2023-04-20T09:40:07.963Z,98.20
2023-04-20T09:44:10.349Z,97.30
2023-04-20T09:48:13.598Z,93.90
2023-04-20T09:52:18.227Z,80.90
2023-04-20T09:56:20.680Z,74.90
2023-04-20T10:00:22.775Z,75.10
2023-04-20T10:04:24.416Z,66.90
2023-04-20T10:08:25.983Z,72.50
2023-04-20T10:12:27.134Z,67.90
2023-04-20T10:16:28.345Z,77.40
2023-04-20T10:20:29.578Z,80.00
2023-04-20T10:24:31.439Z,70.60
2023-04-20T10:28:40.963Z,70.60
2023-04-20T10:32:43.177Z,77.50
2023-04-20T10:36:44.349Z,77.90
2023-04-20T10:40:45.548Z,71.80
2023-04-20T10:44:53.829Z,67.50
2023-04-20T10:48:57.987Z,61.30
2023-04-20T10:52:59.166Z,65.40
2023-04-20T10:57:02.266Z,58.70
2023-04-20T11:01:04.361Z,61.80
2023-04-20T11:05:12.210Z,67.50
2023-04-20T11:09:26.078Z,61.80
2023-04-20T11:13:28.533Z,59.60
2023-04-20T11:17:33.835Z,58.00
2023-04-20T11:21:37.894Z,57.60
2023-04-20T11:25:51.049Z,56.50
2023-04-20T11:30:00.168Z,58.10
2023-04-20T11:34:01.634Z,56.70
2023-04-20T11:38:02.793Z,58.80
2023-04-20T11:42:05.336Z,59.50
2023-04-20T11:46:17.418Z,55.30
2023-04-20T11:50:18.621Z,73.20
2023-04-20T11:54:21.176Z,80.90
2023-04-20T11:58:22.352Z,58.60
2023-04-20T12:02:23.868Z,57.20
2023-04-20T12:06:26.465Z,56.10
2023-04-20T12:10:27.665Z,51.60
2023-04-20T12:14:28.826Z,55.80
2023-04-20T12:18:29.990Z,60.00
2023-04-20T12:22:31.160Z,73.20
2023-04-20T12:26:38.516Z,56.40
2023-04-20T12:30:37.263Z,54.70
2023-04-20T12:34:38.438Z,56.80
2023-04-20T12:38:39.625Z,67.10
2023-04-20T12:42:40.794Z,59.00
2023-04-20T12:46:42.071Z,56.10
2023-04-20T12:50:43.314Z,53.80
2023-04-20T12:54:44.642Z,60.30
2023-04-20T12:58:46.673Z,84.90
2023-04-20T13:02:47.992Z,78.80
2023-04-20T13:06:49.538Z,75.50
2023-04-20T13:10:53.139Z,74.10
2023-04-20T13:14:54.376Z,95.90
2023-04-20T13:18:55.646Z,91.20
2023-04-20T13:23:00.928Z,95.70
2023-04-20T13:27:02.235Z,97.30
2023-04-20T13:31:03.739Z,82.10
2023-04-20T13:35:06.140Z,71.20
2023-04-20T13:39:10.157Z,78.80
2023-04-20T13:43:12.761Z,77.60
2023-04-20T13:47:14.255Z,73.00
2023-04-20T13:51:15.450Z,75.50
2023-04-20T13:55:18.790Z,90.60
2023-04-20T13:59:19.973Z,93.70
2023-04-20T14:03:21.506Z,94.50
2023-04-20T14:07:22.780Z,93.50
2023-04-20T14:11:23.977Z,86.90
2023-04-20T14:15:27.348Z,85.00
2023-04-20T14:19:28.526Z,88.60
2023-04-20T14:23:30.160Z,93.00
2023-04-20T14:27:31.923Z,92.80
2023-04-20T14:31:34.254Z,89.20
2023-04-20T14:35:35.712Z,85.10
2023-04-20T14:39:36.894Z,83.60
2023-04-20T14:43:38.072Z,85.00
2023-04-20T14:47:40.351Z,81.20
2023-04-20T14:51:41.868Z,78.30
2023-04-20T14:55:43.108Z,75.40
2023-04-20T14:59:44.375Z,74.40
2023-04-20T15:03:45.782Z,74.80
2023-04-20T15:07:49.236Z,79.70
2023-04-20T15:11:50.465Z,81.30
2023-04-20T15:15:54.118Z,74.40
2023-04-20T15:19:55.359Z,76.10
2023-04-20T15:23:56.971Z,82.90
2023-04-20T15:27:58.287Z,93.50
2023-04-20T15:32:00.609Z,97.10
2023-04-20T15:36:04.552Z,99.90
2023-04-20T15:40:07.096Z,99.90
2023-04-20T15:44:08.526Z,99.90
2023-04-20T15:48:10.126Z,99.90
2023-04-20T15:52:11.284Z,99.90
2023-04-20T15:56:12.695Z,99.90
2023-04-20T16:00:14.457Z,99.90
2023-04-20T16:04:16.092Z,99.90
2023-04-20T16:08:18.395Z,99.90
2023-04-20T16:12:20.396Z,99.90
2023-04-20T16:16:26.123Z,99.90
2023-04-20T16:20:27.455Z,99.90
2023-04-20T16:24:28.594Z,99.90
2023-04-20T16:28:29.851Z,99.90
2023-04-20T16:32:31.541Z,99.90
2023-04-20T16:36:35.720Z,99.90
2023-04-20T16:40:36.902Z,99.90
2023-04-20T16:44:40.275Z,99.90
2023-04-20T16:48:41.820Z,99.90
2023-04-20T16:52:43.004Z,99.90
2023-04-20T16:56:44.171Z,99.90
2023-04-20T17:00:45.526Z,99.90
2023-04-20T17:04:46.684Z,99.90
2023-04-20T17:08:48.707Z,99.90
2023-04-20T17:12:50.283Z,99.90
2023-04-20T17:16:53.331Z,99.90
2023-04-20T17:20:56.627Z,99.90
2023-04-20T17:24:57.799Z,99.90
2023-04-20T17:28:58.941Z,99.90
2023-04-20T17:33:00.222Z,99.90
2023-04-20T17:37:02.346Z,99.90
2023-04-20T17:41:04.727Z,99.90
2023-04-20T17:45:07.087Z,99.90
2023-04-20T17:49:08.480Z,99.90
2023-04-20T17:53:09.659Z,99.90
2023-04-20T17:57:10.828Z,99.90
2023-04-20T18:01:12.241Z,99.90
2023-04-20T18:05:13.303Z,99.90
2023-04-20T18:09:14.508Z,99.90
2023-04-20T18:13:15.677Z,99.90
2023-04-20T18:17:17.155Z,99.90
2023-04-20T18:21:18.292Z,99.90
2023-04-20T18:25:19.619Z,99.90
2023-04-20T18:29:21.617Z,99.90
2023-04-20T18:33:22.785Z,99.90
2023-04-20T18:37:23.969Z,99.90
2023-04-20T18:41:26.798Z,99.90
2023-04-20T18:45:28.267Z,99.90
2023-04-20T18:49:30.154Z,99.90
2023-04-20T18:53:33.188Z,99.90
2023-04-20T18:57:34.548Z,99.90
2023-04-20T19:01:38.332Z,99.90
2023-04-20T19:05:39.593Z,99.90
2023-04-20T19:09:40.728Z,99.90
2023-04-20T19:13:43.697Z,99.90
2023-04-20T19:17:45.082Z,99.90
2023-04-20T19:21:47.654Z,99.90
2023-04-20T19:25:48.809Z,99.90
2023-04-20T19:29:50.053Z,99.90
2023-04-20T19:33:51.599Z,99.90
2023-04-20T19:37:53.857Z,99.90
2023-04-20T19:41:54.994Z,99.90
2023-04-20T19:45:56.254Z,99.90
2023-04-20T19:49:59.186Z,99.90
2023-04-20T19:54:02.874Z,99.90
2023-04-20T19:58:06.436Z,99.90
2023-04-20T20:02:07.766Z,99.90
2023-04-20T20:06:09.327Z,99.90
2023-04-20T20:10:10.494Z,99.90
2023-04-20T20:14:11.661Z,99.90
2023-04-20T20:18:14.330Z,99.90
2023-04-20T20:22:16.149Z,99.90
2023-04-20T20:26:17.200Z,99.90
2023-04-20T20:30:18.417Z,99.90
2023-04-20T20:34:19.549Z,99.90
2023-04-20T20:38:22.110Z,99.90
2023-04-20T20:42:25.012Z,99.90
2023-04-20T20:46:26.206Z,99.90
2023-04-20T20:50:27.436Z,99.90
2023-04-20T20:54:28.598Z,99.90
2023-04-20T20:58:30.360Z,99.90
2023-04-20T21:02:31.551Z,99.90
2023-04-20T21:06:33.013Z,99.90
2023-04-20T21:10:34.240Z,99.90
2023-04-20T21:14:36.556Z,99.90
2023-04-20T21:18:37.801Z,99.90
2023-04-20T21:22:39.484Z,99.90
2023-04-20T21:26:40.752Z,99.90
2023-04-20T21:30:41.906Z,99.90
2023-04-20T21:34:43.059Z,99.90
2023-04-20T21:38:44.321Z,99.90
2023-04-20T21:42:45.566Z,99.90
2023-04-20T21:46:46.756Z,99.90
2023-04-20T21:50:47.955Z,99.90
2023-04-20T21:54:49.246Z,99.90
2023-04-20T21:58:50.437Z,99.90
2023-04-20T22:02:53.579Z,99.90
2023-04-20T22:06:54.876Z,99.90
2023-04-20T22:10:56.022Z,99.90
2023-04-20T22:14:57.205Z,99.90
2023-04-20T22:18:59.763Z,99.90
2023-04-20T22:23:03.509Z,99.90
2023-04-20T22:27:04.658Z,99.90
2023-04-20T22:31:05.851Z,99.90
2023-04-20T22:35:07.348Z,99.90
2023-04-20T22:39:08.854Z,99.90
2023-04-20T22:43:10.674Z,99.90
2023-04-20T22:47:11.906Z,99.90
2023-04-20T22:51:16.502Z,99.90
2023-04-20T22:55:17.650Z,99.90
2023-04-20T22:59:19.400Z,99.90
2023-04-20T23:03:20.831Z,99.90
2023-04-20T23:07:22.563Z,99.90
2023-04-20T23:11:25.667Z,99.90
2023-04-20T23:15:26.819Z,99.90
2023-04-20T23:19:29.897Z,99.90
2023-04-20T23:23:31.059Z,99.90
2023-04-20T23:27:32.219Z,99.90
2023-04-20T23:31:33.429Z,99.90
2023-04-20T23:35:36.133Z,99.90
2023-04-20T23:39:37.629Z,99.90
2023-04-20T23:43:40.033Z,99.90
2023-04-20T23:47:41.239Z,99.90
2023-04-20T23:51:42.499Z,99.90
2023-04-20T23:55:47.337Z,99.90
2023-04-20T23:59:48.480Z,99.90
